sensor_id;sensor_type;location;lat;lon;timestamp;temperature;humidity
42833;DHT22;64089;51.478;5.692;2022-12-18T00:01:33;-4.40;99.90
42833;DHT22;64089;51.478;5.692;2022-12-18T00:04:01;-4.50;99.90
42833;DHT22;64089;51.478;5.692;2022-12-18T00:06:28;-4.60;99.90
42833;DHT22;64089;51.478;5.692;2022-12-18T00:08:56;-4.70;99.90
42833;DHT22;64089;51.478;5.692;2022-12-18T00:11:24;-4.80;99.90
42833;DHT22;64089;51.478;5.692;2022-12-18T00:13:50;-4.80;99.90
42833;DHT22;64089;51.478;5.692;2022-12-18T00:16:21;-4.90;99.90
42833;DHT22;64089;51.478;5.692;2022-12-18T00:18:51;-4.90;99.90
42833;DHT22;64089;51.478;5.692;2022-12-18T00:21:18;-4.90;99.90
42833;DHT22;64089;51.478;5.692;2022-12-18T00:23:45;-5.00;99.90
42833;DHT22;64089;51.478;5.692;2022-12-18T00:26:13;-5.10;99.90
42833;DHT22;64089;51.478;5.692;2022-12-18T00:28:38;-5.10;99.90
42833;DHT22;64089;51.478;5.692;2022-12-18T00:31:07;-5.00;99.90
42833;DHT22;64089;51.478;5.692;2022-12-18T00:33:33;-4.90;99.90
42833;DHT22;64089;51.478;5.692;2022-12-18T00:36:04;-4.90;99.90
42833;DHT22;64089;51.478;5.692;2022-12-18T00:38:30;-4.80;99.90
42833;DHT22;64089;51.478;5.692;2022-12-18T00:40:56;-4.90;99.90
42833;DHT22;64089;51.478;5.692;2022-12-18T00:43:21;-4.90;99.90
42833;DHT22;64089;51.478;5.692;2022-12-18T00:45:47;-4.90;99.90
42833;DHT22;64089;51.478;5.692;2022-12-18T00:48:12;-4.90;99.90
42833;DHT22;64089;51.478;5.692;2022-12-18T00:50:38;-4.90;99.90
42833;DHT22;64089;51.478;5.692;2022-12-18T00:53:04;-4.90;99.90
42833;DHT22;64089;51.478;5.692;2022-12-18T00:55:30;-4.90;99.90
42833;DHT22;64089;51.478;5.692;2022-12-18T00:57:55;-4.90;99.90
42833;DHT22;64089;51.478;5.692;2022-12-18T01:00:21;-4.90;99.90
42833;DHT22;64089;51.478;5.692;2022-12-18T01:02:47;-4.90;99.90
42833;DHT22;64089;51.478;5.692;2022-12-18T01:05:13;-4.90;99.90
42833;DHT22;64089;51.478;5.692;2022-12-18T01:07:39;-4.90;99.90
42833;DHT22;64089;51.478;5.692;2022-12-18T01:10:06;-5.00;99.90
42833;DHT22;64089;51.478;5.692;2022-12-18T01:12:32;-5.00;99.90
42833;DHT22;64089;51.478;5.692;2022-12-18T01:14:58;-5.10;99.90
42833;DHT22;64089;51.478;5.692;2022-12-18T01:17:24;-5.10;99.90
42833;DHT22;64089;51.478;5.692;2022-12-18T01:19:50;-5.20;99.90
42833;DHT22;64089;51.478;5.692;2022-12-18T01:22:15;-5.20;99.90
42833;DHT22;64089;51.478;5.692;2022-12-18T01:24:41;-5.30;99.90
42833;DHT22;64089;51.478;5.692;2022-12-18T01:27:06;-5.30;99.90
42833;DHT22;64089;51.478;5.692;2022-12-18T01:29:32;-5.30;99.90
42833;DHT22;64089;51.478;5.692;2022-12-18T01:31:58;-5.20;99.90
42833;DHT22;64089;51.478;5.692;2022-12-18T01:34:23;-5.10;99.90
42833;DHT22;64089;51.478;5.692;2022-12-18T01:36:49;-5.10;99.90
42833;DHT22;64089;51.478;5.692;2022-12-18T01:39:18;-5.10;99.90
42833;DHT22;64089;51.478;5.692;2022-12-18T01:41:44;-5.20;99.90
42833;DHT22;64089;51.478;5.692;2022-12-18T01:47:20;-5.30;99.90
42833;DHT22;64089;51.478;5.692;2022-12-18T01:49:47;-5.30;99.90
42833;DHT22;64089;51.478;5.692;2022-12-18T01:52:13;-5.40;99.90
42833;DHT22;64089;51.478;5.692;2022-12-18T01:54:39;-5.50;99.90
42833;DHT22;64089;51.478;5.692;2022-12-18T01:57:05;-5.50;99.90
42833;DHT22;64089;51.478;5.692;2022-12-18T01:59:32;-5.60;99.90
42833;DHT22;64089;51.478;5.692;2022-12-18T02:01:59;-5.60;99.90
42833;DHT22;64089;51.478;5.692;2022-12-18T02:04:27;-5.70;99.90
42833;DHT22;64089;51.478;5.692;2022-12-18T02:07:14;-5.70;99.90
42833;DHT22;64089;51.478;5.692;2022-12-18T02:09:47;-5.70;99.90
42833;DHT22;64089;51.478;5.692;2022-12-18T02:15:02;-5.60;99.90
42833;DHT22;64089;51.478;5.692;2022-12-18T02:20:20;-5.50;99.90
42833;DHT22;64089;51.478;5.692;2022-12-18T02:25:53;-5.70;99.90
42833;DHT22;64089;51.478;5.692;2022-12-18T02:28:26;-5.80;99.90
42833;DHT22;64089;51.478;5.692;2022-12-18T02:30:56;-5.70;99.90
42833;DHT22;64089;51.478;5.692;2022-12-18T02:33:26;-5.70;99.90
42833;DHT22;64089;51.478;5.692;2022-12-18T02:35:54;-5.70;99.90
42833;DHT22;64089;51.478;5.692;2022-12-18T02:38:20;-5.70;99.90
42833;DHT22;64089;51.478;5.692;2022-12-18T02:40:48;-5.80;99.90
42833;DHT22;64089;51.478;5.692;2022-12-18T02:43:15;-5.80;99.90
42833;DHT22;64089;51.478;5.692;2022-12-18T02:45:53;-5.70;99.90
42833;DHT22;64089;51.478;5.692;2022-12-18T02:48:27;-5.80;99.90
42833;DHT22;64089;51.478;5.692;2022-12-18T02:52:16;-5.70;99.90
42833;DHT22;64089;51.478;5.692;2022-12-18T02:54:23;-5.80;99.90
42833;DHT22;64089;51.478;5.692;2022-12-18T02:56:54;-5.90;99.90
42833;DHT22;64089;51.478;5.692;2022-12-18T02:59:31;-5.80;99.90
42833;DHT22;64089;51.478;5.692;2022-12-18T03:02:24;-5.70;99.90
42833;DHT22;64089;51.478;5.692;2022-12-18T03:05:04;-5.70;99.90
42833;DHT22;64089;51.478;5.692;2022-12-18T03:08:01;-5.70;99.90
42833;DHT22;64089;51.478;5.692;2022-12-18T03:10:31;-5.60;99.90
42833;DHT22;64089;51.478;5.692;2022-12-18T03:13:11;-5.60;99.90
42833;DHT22;64089;51.478;5.692;2022-12-18T03:15:45;-5.60;99.90
42833;DHT22;64089;51.478;5.692;2022-12-18T03:18:19;-5.60;99.90
42833;DHT22;64089;51.478;5.692;2022-12-18T03:20:48;-5.70;99.90
42833;DHT22;64089;51.478;5.692;2022-12-18T03:23:21;-5.70;99.90
42833;DHT22;64089;51.478;5.692;2022-12-18T03:25:51;-5.60;99.90
42833;DHT22;64089;51.478;5.692;2022-12-18T03:28:21;-5.60;99.90
42833;DHT22;64089;51.478;5.692;2022-12-18T03:30:51;-5.50;99.90
42833;DHT22;64089;51.478;5.692;2022-12-18T03:33:30;-5.50;99.90
42833;DHT22;64089;51.478;5.692;2022-12-18T03:35:57;-5.50;99.90
42833;DHT22;64089;51.478;5.692;2022-12-18T03:38:23;-5.40;99.90
42833;DHT22;64089;51.478;5.692;2022-12-18T03:46:59;-5.40;99.90
42833;DHT22;64089;51.478;5.692;2022-12-18T03:49:38;-5.40;99.90
42833;DHT22;64089;51.478;5.692;2022-12-18T03:52:10;-5.50;99.90
42833;DHT22;64089;51.478;5.692;2022-12-18T03:54:37;-5.50;99.90
42833;DHT22;64089;51.478;5.692;2022-12-18T03:57:15;-5.40;99.90
42833;DHT22;64089;51.478;5.692;2022-12-18T03:59:43;-5.40;99.90
42833;DHT22;64089;51.478;5.692;2022-12-18T04:02:09;-5.40;99.90
42833;DHT22;64089;51.478;5.692;2022-12-18T04:04:39;-5.30;99.90
42833;DHT22;64089;51.478;5.692;2022-12-18T04:07:05;-5.30;99.90
42833;DHT22;64089;51.478;5.692;2022-12-18T04:09:33;-5.30;99.90
42833;DHT22;64089;51.478;5.692;2022-12-18T04:11:59;-5.30;99.90
42833;DHT22;64089;51.478;5.692;2022-12-18T04:14:24;-5.30;99.90
42833;DHT22;64089;51.478;5.692;2022-12-18T04:16:50;-5.30;99.90
42833;DHT22;64089;51.478;5.692;2022-12-18T04:19:16;-5.20;99.90
42833;DHT22;64089;51.478;5.692;2022-12-18T04:21:41;-5.30;99.90
42833;DHT22;64089;51.478;5.692;2022-12-18T04:24:07;-5.30;99.90
42833;DHT22;64089;51.478;5.692;2022-12-18T04:26:33;-5.30;99.90
42833;DHT22;64089;51.478;5.692;2022-12-18T04:28:58;-5.30;99.90
42833;DHT22;64089;51.478;5.692;2022-12-18T04:31:24;-5.30;99.90
42833;DHT22;64089;51.478;5.692;2022-12-18T04:33:49;-5.30;99.90
42833;DHT22;64089;51.478;5.692;2022-12-18T04:36:15;-5.30;99.90
42833;DHT22;64089;51.478;5.692;2022-12-18T04:38:43;-5.30;99.90
42833;DHT22;64089;51.478;5.692;2022-12-18T04:41:09;-5.30;99.90
42833;DHT22;64089;51.478;5.692;2022-12-18T04:43:35;-5.40;99.90
42833;DHT22;64089;51.478;5.692;2022-12-18T04:46:04;-5.40;99.90
42833;DHT22;64089;51.478;5.692;2022-12-18T04:48:31;-5.30;99.90
42833;DHT22;64089;51.478;5.692;2022-12-18T04:50:56;-5.30;99.90
42833;DHT22;64089;51.478;5.692;2022-12-18T04:53:22;-5.30;99.90
42833;DHT22;64089;51.478;5.692;2022-12-18T04:55:48;-5.30;99.90
42833;DHT22;64089;51.478;5.692;2022-12-18T04:58:13;-5.30;99.90
42833;DHT22;64089;51.478;5.692;2022-12-18T05:00:39;-5.30;99.90
42833;DHT22;64089;51.478;5.692;2022-12-18T05:03:04;-5.30;99.90
42833;DHT22;64089;51.478;5.692;2022-12-18T05:05:30;-5.30;99.90
42833;DHT22;64089;51.478;5.692;2022-12-18T05:07:56;-5.30;99.90
42833;DHT22;64089;51.478;5.692;2022-12-18T05:10:21;-5.30;99.90
42833;DHT22;64089;51.478;5.692;2022-12-18T05:12:47;-5.30;99.90
42833;DHT22;64089;51.478;5.692;2022-12-18T05:15:30;-5.40;99.90
42833;DHT22;64089;51.478;5.692;2022-12-18T05:17:57;-5.50;99.90
42833;DHT22;64089;51.478;5.692;2022-12-18T05:20:23;-5.50;99.90
42833;DHT22;64089;51.478;5.692;2022-12-18T05:22:50;-5.50;99.90
42833;DHT22;64089;51.478;5.692;2022-12-18T05:25:16;-5.50;99.90
42833;DHT22;64089;51.478;5.692;2022-12-18T05:27:41;-5.50;99.90
42833;DHT22;64089;51.478;5.692;2022-12-18T05:30:08;-5.50;99.90
42833;DHT22;64089;51.478;5.692;2022-12-18T05:32:34;-5.50;99.90
42833;DHT22;64089;51.478;5.692;2022-12-18T05:35:00;-5.60;99.90
42833;DHT22;64089;51.478;5.692;2022-12-18T05:37:25;-5.60;99.90
42833;DHT22;64089;51.478;5.692;2022-12-18T05:39:51;-5.60;99.90
42833;DHT22;64089;51.478;5.692;2022-12-18T05:42:16;-5.60;99.90
42833;DHT22;64089;51.478;5.692;2022-12-18T05:44:45;-5.60;99.90
42833;DHT22;64089;51.478;5.692;2022-12-18T05:47:11;-5.60;99.90
42833;DHT22;64089;51.478;5.692;2022-12-18T05:49:36;-5.60;99.90
42833;DHT22;64089;51.478;5.692;2022-12-18T05:52:02;-5.50;99.90
42833;DHT22;64089;51.478;5.692;2022-12-18T05:54:28;-5.50;99.90
42833;DHT22;64089;51.478;5.692;2022-12-18T05:56:54;-5.50;99.90
42833;DHT22;64089;51.478;5.692;2022-12-18T05:59:20;-5.50;99.90
42833;DHT22;64089;51.478;5.692;2022-12-18T06:01:46;-5.50;99.90
42833;DHT22;64089;51.478;5.692;2022-12-18T06:04:11;-5.50;99.90
42833;DHT22;64089;51.478;5.692;2022-12-18T06:06:37;-5.40;99.90
42833;DHT22;64089;51.478;5.692;2022-12-18T06:09:03;-5.40;99.90
42833;DHT22;64089;51.478;5.692;2022-12-18T06:11:35;-5.40;99.90
42833;DHT22;64089;51.478;5.692;2022-12-18T06:14:02;-5.30;99.90
42833;DHT22;64089;51.478;5.692;2022-12-18T06:16:28;-5.30;99.90
42833;DHT22;64089;51.478;5.692;2022-12-18T06:18:57;-5.30;99.90
42833;DHT22;64089;51.478;5.692;2022-12-18T06:21:22;-5.20;99.90
42833;DHT22;64089;51.478;5.692;2022-12-18T06:23:49;-5.30;99.90
42833;DHT22;64089;51.478;5.692;2022-12-18T06:26:15;-5.30;99.90
42833;DHT22;64089;51.478;5.692;2022-12-18T06:28:40;-5.20;99.90
42833;DHT22;64089;51.478;5.692;2022-12-18T06:31:06;-5.20;99.90
42833;DHT22;64089;51.478;5.692;2022-12-18T06:33:33;-5.20;99.90
42833;DHT22;64089;51.478;5.692;2022-12-18T06:36:04;-5.20;99.90
42833;DHT22;64089;51.478;5.692;2022-12-18T06:38:32;-5.30;99.90
42833;DHT22;64089;51.478;5.692;2022-12-18T06:40:57;-5.30;99.90
42833;DHT22;64089;51.478;5.692;2022-12-18T06:43:23;-5.30;99.90
42833;DHT22;64089;51.478;5.692;2022-12-18T06:45:49;-5.30;99.90
42833;DHT22;64089;51.478;5.692;2022-12-18T06:48:19;-5.30;99.90
42833;DHT22;64089;51.478;5.692;2022-12-18T06:50:45;-5.30;99.90
42833;DHT22;64089;51.478;5.692;2022-12-18T06:53:11;-5.30;99.90
42833;DHT22;64089;51.478;5.692;2022-12-18T06:55:37;-5.30;99.90
42833;DHT22;64089;51.478;5.692;2022-12-18T06:58:02;-5.30;99.90
42833;DHT22;64089;51.478;5.692;2022-12-18T07:00:28;-5.30;99.90
42833;DHT22;64089;51.478;5.692;2022-12-18T07:02:53;-5.30;99.90
42833;DHT22;64089;51.478;5.692;2022-12-18T07:05:19;-5.30;99.90
42833;DHT22;64089;51.478;5.692;2022-12-18T07:07:44;-5.40;99.90
42833;DHT22;64089;51.478;5.692;2022-12-18T07:10:10;-5.40;99.90
42833;DHT22;64089;51.478;5.692;2022-12-18T07:12:36;-5.40;99.90
42833;DHT22;64089;51.478;5.692;2022-12-18T07:15:01;-5.40;99.90
42833;DHT22;64089;51.478;5.692;2022-12-18T07:17:27;-5.50;99.90
42833;DHT22;64089;51.478;5.692;2022-12-18T07:19:53;-5.50;99.90
42833;DHT22;64089;51.478;5.692;2022-12-18T07:22:19;-5.50;99.90
42833;DHT22;64089;51.478;5.692;2022-12-18T07:24:44;-5.40;99.90
42833;DHT22;64089;51.478;5.692;2022-12-18T07:27:10;-5.50;99.90
42833;DHT22;64089;51.478;5.692;2022-12-18T07:29:35;-5.50;99.90
42833;DHT22;64089;51.478;5.692;2022-12-18T07:32:01;-5.40;99.90
42833;DHT22;64089;51.478;5.692;2022-12-18T07:34:27;-5.50;99.90
42833;DHT22;64089;51.478;5.692;2022-12-18T07:36:52;-5.50;99.90
42833;DHT22;64089;51.478;5.692;2022-12-18T07:39:18;-5.50;99.90
42833;DHT22;64089;51.478;5.692;2022-12-18T07:41:43;-5.40;99.90
42833;DHT22;64089;51.478;5.692;2022-12-18T07:44:29;-5.40;99.90
42833;DHT22;64089;51.478;5.692;2022-12-18T07:46:54;-5.40;99.90
42833;DHT22;64089;51.478;5.692;2022-12-18T07:49:20;-5.30;99.90
42833;DHT22;64089;51.478;5.692;2022-12-18T07:51:46;-5.30;99.90
42833;DHT22;64089;51.478;5.692;2022-12-18T07:54:14;-5.30;99.90
42833;DHT22;64089;51.478;5.692;2022-12-18T07:56:40;-5.20;99.90
42833;DHT22;64089;51.478;5.692;2022-12-18T07:59:05;-5.20;99.90
42833;DHT22;64089;51.478;5.692;2022-12-18T08:01:31;-5.10;99.90
42833;DHT22;64089;51.478;5.692;2022-12-18T08:03:57;-5.10;99.90
42833;DHT22;64089;51.478;5.692;2022-12-18T08:06:23;-5.00;99.90
42833;DHT22;64089;51.478;5.692;2022-12-18T08:08:51;-5.00;99.90
42833;DHT22;64089;51.478;5.692;2022-12-18T08:11:17;-4.90;99.90
42833;DHT22;64089;51.478;5.692;2022-12-18T08:13:43;-4.80;99.90
42833;DHT22;64089;51.478;5.692;2022-12-18T08:16:08;-4.70;99.90
42833;DHT22;64089;51.478;5.692;2022-12-18T08:18:35;-4.70;99.90
42833;DHT22;64089;51.478;5.692;2022-12-18T08:21:29;-4.60;99.90
42833;DHT22;64089;51.478;5.692;2022-12-18T08:23:58;-4.60;99.90
42833;DHT22;64089;51.478;5.692;2022-12-18T08:26:26;-4.60;99.90
42833;DHT22;64089;51.478;5.692;2022-12-18T08:28:54;-4.60;99.90
42833;DHT22;64089;51.478;5.692;2022-12-18T08:31:20;-4.60;99.90
42833;DHT22;64089;51.478;5.692;2022-12-18T08:33:48;-4.50;99.90
42833;DHT22;64089;51.478;5.692;2022-12-18T08:36:15;-4.40;99.90
42833;DHT22;64089;51.478;5.692;2022-12-18T08:38:40;-4.30;99.90
42833;DHT22;64089;51.478;5.692;2022-12-18T08:41:08;-4.30;99.90
42833;DHT22;64089;51.478;5.692;2022-12-18T08:43:35;-4.20;99.90
42833;DHT22;64089;51.478;5.692;2022-12-18T08:46:20;-4.20;99.90
42833;DHT22;64089;51.478;5.692;2022-12-18T08:48:46;-4.10;99.90
42833;DHT22;64089;51.478;5.692;2022-12-18T08:51:12;-4.10;99.90
42833;DHT22;64089;51.478;5.692;2022-12-18T08:53:38;-4.10;99.90
42833;DHT22;64089;51.478;5.692;2022-12-18T08:56:04;-4.00;99.90
42833;DHT22;64089;51.478;5.692;2022-12-18T08:58:30;-4.00;99.90
42833;DHT22;64089;51.478;5.692;2022-12-18T09:01:03;-4.00;99.90
42833;DHT22;64089;51.478;5.692;2022-12-18T09:03:29;-3.90;99.90
42833;DHT22;64089;51.478;5.692;2022-12-18T09:05:55;-3.80;99.90
42833;DHT22;64089;51.478;5.692;2022-12-18T09:08:20;-3.70;99.90
42833;DHT22;64089;51.478;5.692;2022-12-18T09:10:48;-3.60;99.90
42833;DHT22;64089;51.478;5.692;2022-12-18T09:13:15;-3.50;99.90
42833;DHT22;64089;51.478;5.692;2022-12-18T09:15:49;-3.50;99.90
42833;DHT22;64089;51.478;5.692;2022-12-18T09:18:16;-3.40;99.90
42833;DHT22;64089;51.478;5.692;2022-12-18T09:20:43;-3.30;99.90
42833;DHT22;64089;51.478;5.692;2022-12-18T09:23:09;-3.30;99.90
42833;DHT22;64089;51.478;5.692;2022-12-18T09:25:36;-3.30;99.90
42833;DHT22;64089;51.478;5.692;2022-12-18T09:28:04;-3.20;99.90
42833;DHT22;64089;51.478;5.692;2022-12-18T09:30:30;-3.20;99.90
42833;DHT22;64089;51.478;5.692;2022-12-18T09:32:58;-3.20;99.90
42833;DHT22;64089;51.478;5.692;2022-12-18T09:35:24;-3.00;99.90
42833;DHT22;64089;51.478;5.692;2022-12-18T09:37:49;-3.00;99.90
42833;DHT22;64089;51.478;5.692;2022-12-18T09:40:21;-3.00;99.90
42833;DHT22;64089;51.478;5.692;2022-12-18T09:42:57;-2.90;99.90
42833;DHT22;64089;51.478;5.692;2022-12-18T09:45:24;-2.90;99.90
42833;DHT22;64089;51.478;5.692;2022-12-18T09:47:52;-2.80;99.90
42833;DHT22;64089;51.478;5.692;2022-12-18T09:50:27;-2.80;99.90
42833;DHT22;64089;51.478;5.692;2022-12-18T09:52:57;-2.80;99.90
42833;DHT22;64089;51.478;5.692;2022-12-18T09:55:30;-2.70;99.90
42833;DHT22;64089;51.478;5.692;2022-12-18T09:58:04;-2.70;99.90
42833;DHT22;64089;51.478;5.692;2022-12-18T10:00:31;-2.70;99.90
42833;DHT22;64089;51.478;5.692;2022-12-18T10:03:08;-2.60;99.90
42833;DHT22;64089;51.478;5.692;2022-12-18T10:09:02;-2.40;99.90
42833;DHT22;64089;51.478;5.692;2022-12-18T10:19:50;-2.10;99.90
42833;DHT22;64089;51.478;5.692;2022-12-18T10:27:51;-1.20;99.90
42833;DHT22;64089;51.478;5.692;2022-12-18T10:30:20;-1.40;99.90
42833;DHT22;64089;51.478;5.692;2022-12-18T10:32:46;-1.50;99.90
42833;DHT22;64089;51.478;5.692;2022-12-18T10:35:24;-1.50;99.90
42833;DHT22;64089;51.478;5.692;2022-12-18T10:38:42;-1.50;99.90
42833;DHT22;64089;51.478;5.692;2022-12-18T10:40:51;-1.30;99.90
42833;DHT22;64089;51.478;5.692;2022-12-18T10:43:26;-1.10;99.90
42833;DHT22;64089;51.478;5.692;2022-12-18T10:54:05;-1.00;99.90
42833;DHT22;64089;51.478;5.692;2022-12-18T10:56:33;-1.00;99.90
42833;DHT22;64089;51.478;5.692;2022-12-18T11:01:27;-1.00;99.90
42833;DHT22;64089;51.478;5.692;2022-12-18T11:06:23;-1.00;99.90
42833;DHT22;64089;51.478;5.692;2022-12-18T11:09:18;-1.00;99.90
42833;DHT22;64089;51.478;5.692;2022-12-18T11:11:49;-1.00;99.90
42833;DHT22;64089;51.478;5.692;2022-12-18T11:14:47;-1.00;99.90
42833;DHT22;64089;51.478;5.692;2022-12-18T11:17:31;-1.00;99.90
42833;DHT22;64089;51.478;5.692;2022-12-18T11:22:30;-0.90;99.90
42833;DHT22;64089;51.478;5.692;2022-12-18T11:25:04;-0.90;99.90
42833;DHT22;64089;51.478;5.692;2022-12-18T11:27:31;-0.80;99.90
42833;DHT22;64089;51.478;5.692;2022-12-18T11:33:10;-0.30;99.90
42833;DHT22;64089;51.478;5.692;2022-12-18T11:38:30;0.00;99.90
42833;DHT22;64089;51.478;5.692;2022-12-18T11:41:09;-0.10;99.90
42833;DHT22;64089;51.478;5.692;2022-12-18T11:46:37;-0.40;99.90
42833;DHT22;64089;51.478;5.692;2022-12-18T11:49:25;-0.40;99.90
42833;DHT22;64089;51.478;5.692;2022-12-18T11:52:09;-0.40;99.90
42833;DHT22;64089;51.478;5.692;2022-12-18T11:54:35;-0.40;99.90
42833;DHT22;64089;51.478;5.692;2022-12-18T12:11:42;-0.40;99.90
42833;DHT22;64089;51.478;5.692;2022-12-18T12:14:14;-0.40;99.90
42833;DHT22;64089;51.478;5.692;2022-12-18T12:17:06;-0.30;99.90
42833;DHT22;64089;51.478;5.692;2022-12-18T12:32:54;-0.30;99.90
42833;DHT22;64089;51.478;5.692;2022-12-18T12:35:49;-0.20;99.90
42833;DHT22;64089;51.478;5.692;2022-12-18T12:38:43;-0.20;99.90
42833;DHT22;64089;51.478;5.692;2022-12-18T12:41:14;-0.20;99.90
42833;DHT22;64089;51.478;5.692;2022-12-18T12:44:04;-0.20;99.90
42833;DHT22;64089;51.478;5.692;2022-12-18T12:46:33;-0.10;99.90
42833;DHT22;64089;51.478;5.692;2022-12-18T12:49:05;-0.10;99.90
42833;DHT22;64089;51.478;5.692;2022-12-18T12:51:36;-0.10;99.90
42833;DHT22;64089;51.478;5.692;2022-12-18T12:54:05;-0.10;99.90
42833;DHT22;64089;51.478;5.692;2022-12-18T12:59:32;-0.10;99.90
42833;DHT22;64089;51.478;5.692;2022-12-18T13:02:28;-0.10;99.90
42833;DHT22;64089;51.478;5.692;2022-12-18T13:07:47;0.00;99.90
42833;DHT22;64089;51.478;5.692;2022-12-18T13:13:15;0.00;99.90
42833;DHT22;64089;51.478;5.692;2022-12-18T13:15:45;0.00;99.90
42833;DHT22;64089;51.478;5.692;2022-12-18T13:18:17;0.00;99.90
42833;DHT22;64089;51.478;5.692;2022-12-18T13:23:26;0.00;99.90
42833;DHT22;64089;51.478;5.692;2022-12-18T13:30:58;0.00;99.90
42833;DHT22;64089;51.478;5.692;2022-12-18T13:33:34;0.00;99.90
42833;DHT22;64089;51.478;5.692;2022-12-18T13:36:04;0.00;99.90
42833;DHT22;64089;51.478;5.692;2022-12-18T13:38:35;0.10;99.90
42833;DHT22;64089;51.478;5.692;2022-12-18T13:41:22;0.10;99.90
42833;DHT22;64089;51.478;5.692;2022-12-18T13:43:57;0.10;99.90
42833;DHT22;64089;51.478;5.692;2022-12-18T13:46:46;0.00;99.90
42833;DHT22;64089;51.478;5.692;2022-12-18T13:51:43;0.00;99.90
42833;DHT22;64089;51.478;5.692;2022-12-18T13:54:34;0.00;99.90
42833;DHT22;64089;51.478;5.692;2022-12-18T13:57:01;0.10;99.90
42833;DHT22;64089;51.478;5.692;2022-12-18T13:59:35;0.00;99.90
42833;DHT22;64089;51.478;5.692;2022-12-18T14:02:15;0.00;99.90
42833;DHT22;64089;51.478;5.692;2022-12-18T14:04:44;0.00;99.90
42833;DHT22;64089;51.478;5.692;2022-12-18T14:07:22;0.10;99.90
42833;DHT22;64089;51.478;5.692;2022-12-18T14:10:01;0.00;99.90
42833;DHT22;64089;51.478;5.692;2022-12-18T14:12:33;0.10;99.90
42833;DHT22;64089;51.478;5.692;2022-12-18T14:17:47;0.10;99.90
42833;DHT22;64089;51.478;5.692;2022-12-18T14:20:15;0.10;99.90
42833;DHT22;64089;51.478;5.692;2022-12-18T14:22:47;0.10;99.90
42833;DHT22;64089;51.478;5.692;2022-12-18T14:25:19;0.10;99.90
42833;DHT22;64089;51.478;5.692;2022-12-18T14:30:23;0.10;99.90
42833;DHT22;64089;51.478;5.692;2022-12-18T14:33:08;0.10;99.90
42833;DHT22;64089;51.478;5.692;2022-12-18T14:35:37;0.10;99.90
42833;DHT22;64089;51.478;5.692;2022-12-18T14:40:35;0.10;99.90
42833;DHT22;64089;51.478;5.692;2022-12-18T14:43:00;0.10;99.90
42833;DHT22;64089;51.478;5.692;2022-12-18T14:45:37;0.10;99.90
42833;DHT22;64089;51.478;5.692;2022-12-18T14:48:07;0.10;99.90
42833;DHT22;64089;51.478;5.692;2022-12-18T14:50:33;0.00;99.90
42833;DHT22;64089;51.478;5.692;2022-12-18T14:52:59;0.00;99.90
42833;DHT22;64089;51.478;5.692;2022-12-18T14:55:25;0.00;99.90
42833;DHT22;64089;51.478;5.692;2022-12-18T14:57:53;0.00;99.90
42833;DHT22;64089;51.478;5.692;2022-12-18T15:00:22;0.10;99.90
42833;DHT22;64089;51.478;5.692;2022-12-18T15:02:52;0.10;99.90
42833;DHT22;64089;51.478;5.692;2022-12-18T15:05:24;0.10;99.90
42833;DHT22;64089;51.478;5.692;2022-12-18T15:07:51;0.10;99.90
42833;DHT22;64089;51.478;5.692;2022-12-18T15:10:25;0.10;99.90
42833;DHT22;64089;51.478;5.692;2022-12-18T15:18:32;0.10;99.90
42833;DHT22;64089;51.478;5.692;2022-12-18T15:21:00;0.30;99.90
42833;DHT22;64089;51.478;5.692;2022-12-18T15:23:36;0.40;99.90
42833;DHT22;64089;51.478;5.692;2022-12-18T15:26:08;0.50;99.90
42833;DHT22;64089;51.478;5.692;2022-12-18T15:28:56;0.40;99.90
42833;DHT22;64089;51.478;5.692;2022-12-18T15:31:32;0.20;99.90
42833;DHT22;64089;51.478;5.692;2022-12-18T15:34:14;0.20;99.90
42833;DHT22;64089;51.478;5.692;2022-12-18T15:36:44;0.20;99.90
42833;DHT22;64089;51.478;5.692;2022-12-18T15:39:11;0.20;99.90
42833;DHT22;64089;51.478;5.692;2022-12-18T15:41:37;0.20;99.90
42833;DHT22;64089;51.478;5.692;2022-12-18T15:44:15;0.20;99.90
42833;DHT22;64089;51.478;5.692;2022-12-18T15:46:46;0.20;99.90
42833;DHT22;64089;51.478;5.692;2022-12-18T15:49:11;0.10;99.90
42833;DHT22;64089;51.478;5.692;2022-12-18T15:51:38;0.10;99.90
42833;DHT22;64089;51.478;5.692;2022-12-18T15:54:08;0.20;99.90
42833;DHT22;64089;51.478;5.692;2022-12-18T15:56:34;0.20;99.90
42833;DHT22;64089;51.478;5.692;2022-12-18T15:59:20;0.10;99.90
42833;DHT22;64089;51.478;5.692;2022-12-18T16:01:51;0.10;99.90
42833;DHT22;64089;51.478;5.692;2022-12-18T16:04:19;0.10;99.90
42833;DHT22;64089;51.478;5.692;2022-12-18T16:06:48;0.10;99.90
42833;DHT22;64089;51.478;5.692;2022-12-18T16:09:14;0.10;99.90
42833;DHT22;64089;51.478;5.692;2022-12-18T16:11:41;0.10;99.90
42833;DHT22;64089;51.478;5.692;2022-12-18T16:14:21;0.10;99.90
42833;DHT22;64089;51.478;5.692;2022-12-18T16:16:53;0.20;99.90
42833;DHT22;64089;51.478;5.692;2022-12-18T16:19:20;0.20;99.90
42833;DHT22;64089;51.478;5.692;2022-12-18T16:21:47;0.10;99.90
42833;DHT22;64089;51.478;5.692;2022-12-18T16:24:24;0.10;99.90
42833;DHT22;64089;51.478;5.692;2022-12-18T16:26:51;0.10;99.90
42833;DHT22;64089;51.478;5.692;2022-12-18T16:29:18;0.20;99.90
42833;DHT22;64089;51.478;5.692;2022-12-18T16:31:44;0.20;99.90
42833;DHT22;64089;51.478;5.692;2022-12-18T16:34:29;0.10;99.90
42833;DHT22;64089;51.478;5.692;2022-12-18T16:36:57;0.10;99.90
42833;DHT22;64089;51.478;5.692;2022-12-18T16:39:24;0.10;99.90
42833;DHT22;64089;51.478;5.692;2022-12-18T16:41:49;0.10;99.90
42833;DHT22;64089;51.478;5.692;2022-12-18T16:44:15;0.10;99.90
42833;DHT22;64089;51.478;5.692;2022-12-18T16:46:41;0.10;99.90
42833;DHT22;64089;51.478;5.692;2022-12-18T16:49:14;0.10;99.90
42833;DHT22;64089;51.478;5.692;2022-12-18T16:51:40;0.10;99.90
42833;DHT22;64089;51.478;5.692;2022-12-18T16:54:06;0.10;99.90
42833;DHT22;64089;51.478;5.692;2022-12-18T16:56:32;0.10;99.90
42833;DHT22;64089;51.478;5.692;2022-12-18T16:59:00;0.10;99.90
42833;DHT22;64089;51.478;5.692;2022-12-18T17:01:27;0.10;99.90
42833;DHT22;64089;51.478;5.692;2022-12-18T17:04:02;0.10;99.90
42833;DHT22;64089;51.478;5.692;2022-12-18T17:06:30;0.20;99.90
42833;DHT22;64089;51.478;5.692;2022-12-18T17:09:04;0.20;99.90
42833;DHT22;64089;51.478;5.692;2022-12-18T17:11:31;0.20;99.90
42833;DHT22;64089;51.478;5.692;2022-12-18T17:13:57;0.10;99.90
42833;DHT22;64089;51.478;5.692;2022-12-18T17:16:23;0.10;99.90
42833;DHT22;64089;51.478;5.692;2022-12-18T17:18:50;0.10;99.90
42833;DHT22;64089;51.478;5.692;2022-12-18T17:21:16;0.10;99.90
42833;DHT22;64089;51.478;5.692;2022-12-18T17:23:43;0.10;99.90
42833;DHT22;64089;51.478;5.692;2022-12-18T17:26:09;0.10;99.90
42833;DHT22;64089;51.478;5.692;2022-12-18T17:28:36;0.10;99.90
42833;DHT22;64089;51.478;5.692;2022-12-18T17:31:13;0.10;99.90
42833;DHT22;64089;51.478;5.692;2022-12-18T17:33:42;0.10;99.90
42833;DHT22;64089;51.478;5.692;2022-12-18T17:36:08;0.10;99.90
42833;DHT22;64089;51.478;5.692;2022-12-18T17:38:34;0.10;99.90
42833;DHT22;64089;51.478;5.692;2022-12-18T17:41:05;0.10;99.90
42833;DHT22;64089;51.478;5.692;2022-12-18T17:43:31;0.20;99.90
42833;DHT22;64089;51.478;5.692;2022-12-18T17:46:01;0.20;99.90
42833;DHT22;64089;51.478;5.692;2022-12-18T17:48:27;0.30;99.90
42833;DHT22;64089;51.478;5.692;2022-12-18T17:50:53;0.40;99.90